Accueil
METAR-TAF:

METAR-TAF

Aéroports :

Aéroport de Hiroshima

Hiroshima, Japon

latitude: 34-26N, longitude: 132-55E, altitude: 331 m

Observation

Le bulletin a été fait il y a 4 heures et 21 minutes, à 13:00 UTC
Vent 5 kt de nord/nord-ouest
Température 8°C
Humidité 76%
Pression 1019 hPa
Visibilité 10 km ou plus
Quelques nuages à une hauteur de 2000 ft

METAR: RJOA 191300Z 33005KT 9999 FEW020 08/04 Q1019

Heure: 02:21 (17:21 UTC)

Prévision

Le bulletin a été fait il y a 6 heures et 15 minutes, à 11:06 UTC
Prévision valable du 19 à 12 UTC au 20 à 18 UTC
Vent 5 kt de nord/nord-ouest
Visibilité 10 km ou plus
Quelques nuages à une hauteur de 2000 ft

TAF: RJOA 191106Z 1912/2018 34005KT 9999 FEW020

Observations et prévisions météorologiques de plus de 4000 aéroports (messages METAR et TAF).

Les stations disponibles sont représentées par des disques jaunes et rouges sur la carte.

Passer la souris dessus pour voir le nom de la station.

Cliquer dessus pour voir les observations et prévisions météorologiques.

Pour changer de carte: cliquez sur les boutons verts avec une croix noire pour zoomer, sur le bouton vert avec un tiret pour effectuer un zoom arrière, ou sur les flèches vertes pour les cartes adjacentes.


METAR-TAF: